createdAt,value
2022-11-13T00:00:55.726Z,16.45
2022-11-13T00:03:22.931Z,16.41
2022-11-13T00:05:49.496Z,16.43
2022-11-13T00:08:16.087Z,16.47
2022-11-13T00:10:42.681Z,16.51
2022-11-13T00:13:09.245Z,16.46
2022-11-13T00:15:35.780Z,16.48
2022-11-13T00:18:03.095Z,16.42
2022-11-13T00:20:29.855Z,16.48
2022-11-13T00:22:56.459Z,16.48
2022-11-13T00:25:22.994Z,16.41
2022-11-13T00:27:49.626Z,16.39
2022-11-13T00:30:19.281Z,16.40
2022-11-13T00:32:46.160Z,16.36
2022-11-13T00:35:12.726Z,16.37
2022-11-13T00:37:39.275Z,16.43
2022-11-13T00:40:06.146Z,16.44
2022-11-13T00:42:32.797Z,16.40
2022-11-13T00:44:59.328Z,16.38
2022-11-13T00:47:25.873Z,16.30
2022-11-13T00:49:52.402Z,16.33
2022-11-13T00:52:18.942Z,16.39
2022-11-13T00:54:45.514Z,16.34
2022-11-13T00:57:12.054Z,16.38
2022-11-13T00:59:38.589Z,16.34
2022-11-13T01:02:05.360Z,16.37
2022-11-13T01:04:31.932Z,16.33
2022-11-13T01:06:58.499Z,16.37
2022-11-13T01:09:25.100Z,16.40
2022-11-13T01:11:51.682Z,16.36
2022-11-13T01:14:18.222Z,16.31
2022-11-13T01:16:44.776Z,16.31
2022-11-13T01:19:11.350Z,16.33
2022-11-13T01:21:37.886Z,16.30
2022-11-13T01:24:04.580Z,16.33
2022-11-13T01:26:31.486Z,16.25
2022-11-13T01:28:59.053Z,16.31
2022-11-13T01:31:29.660Z,16.34
2022-11-13T01:33:56.507Z,16.30
2022-11-13T01:36:25.492Z,16.27
2022-11-13T01:38:52.806Z,16.27
2022-11-13T01:41:25.485Z,16.26
2022-11-13T01:43:53.310Z,16.23
2022-11-13T01:46:22.481Z,16.26
2022-11-13T01:48:54.270Z,16.25
2022-11-13T01:51:26.929Z,16.25
2022-11-13T01:53:53.662Z,16.25
2022-11-13T01:56:20.372Z,16.23
2022-11-13T01:58:53.466Z,16.23
2022-11-13T02:01:20.118Z,16.16
2022-11-13T02:03:46.687Z,16.19
2022-11-13T02:06:13.708Z,16.22
2022-11-13T02:08:40.271Z,16.25
2022-11-13T02:11:06.819Z,16.20
2022-11-13T02:13:33.675Z,16.17
2022-11-13T02:19:43.853Z,16.25
2022-11-13T02:22:25.487Z,16.17
2022-11-13T02:24:54.933Z,16.18
2022-11-13T02:27:21.599Z,16.20
2022-11-13T02:29:48.171Z,16.17
2022-11-13T02:32:14.871Z,16.14
2022-11-13T02:34:41.416Z,16.20
2022-11-13T02:37:07.963Z,16.19
2022-11-13T02:39:34.520Z,16.12
2022-11-13T02:42:01.086Z,16.17
2022-11-13T02:44:27.607Z,16.10
2022-11-13T02:46:54.146Z,16.12
2022-11-13T02:49:20.716Z,16.14
2022-11-13T02:51:47.250Z,16.17
2022-11-13T02:54:16.972Z,16.13
2022-11-13T02:56:43.920Z,16.15
2022-11-13T02:59:10.476Z,16.19
2022-11-13T03:01:37.084Z,16.18
2022-11-13T03:04:03.766Z,16.14
2022-11-13T03:06:30.315Z,16.14
2022-11-13T03:08:56.897Z,16.16
2022-11-13T03:11:23.527Z,16.14
2022-11-13T03:13:50.129Z,16.11
2022-11-13T03:16:17.465Z,16.13
2022-11-13T03:18:44.039Z,16.14
2022-11-13T03:21:13.327Z,16.15
2022-11-13T03:23:40.963Z,16.12
2022-11-13T03:26:09.369Z,16.14
2022-11-13T03:28:36.626Z,16.16
2022-11-13T03:31:03.799Z,16.16
2022-11-13T03:33:30.558Z,16.13
2022-11-13T03:35:57.203Z,16.13
2022-11-13T03:38:24.239Z,16.16
2022-11-13T03:40:51.231Z,16.11
2022-11-13T03:43:18.233Z,16.10
2022-11-13T03:45:46.626Z,16.12
2022-11-13T03:48:14.549Z,16.13
2022-11-13T03:50:45.712Z,16.12
2022-11-13T03:53:12.592Z,16.11
2022-11-13T03:55:39.288Z,16.11
2022-11-13T03:58:05.931Z,16.13
2022-11-13T04:00:33.177Z,16.11
2022-11-13T04:02:59.779Z,16.11
2022-11-13T04:05:26.566Z,16.10
2022-11-13T04:07:53.168Z,16.09
2022-11-13T04:10:19.751Z,16.10
2022-11-13T04:12:46.330Z,16.10
2022-11-13T04:15:12.930Z,16.10
2022-11-13T04:17:39.446Z,16.10
2022-11-13T04:20:06.685Z,16.10
2022-11-13T04:22:33.260Z,16.13
2022-11-13T04:24:59.855Z,16.11
2022-11-13T04:27:26.416Z,16.12
2022-11-13T04:29:53.278Z,16.10
2022-11-13T04:32:19.827Z,16.06
2022-11-13T04:34:46.370Z,16.06
2022-11-13T04:37:12.890Z,16.10
2022-11-13T04:39:39.452Z,16.01
2022-11-13T04:42:24.561Z,16.10
2022-11-13T04:44:51.109Z,16.06
2022-11-13T04:47:17.670Z,16.12
2022-11-13T04:49:44.202Z,16.07
2022-11-13T04:52:10.926Z,16.02
2022-11-13T04:54:37.479Z,16.04
2022-11-13T04:57:04.097Z,16.08
2022-11-13T04:59:30.687Z,16.06
2022-11-13T05:01:57.616Z,16.11
2022-11-13T05:04:24.211Z,16.04
2022-11-13T05:06:50.854Z,15.99
2022-11-13T05:09:17.532Z,16.06
2022-11-13T05:11:44.068Z,16.08
2022-11-13T05:14:13.945Z,16.02
2022-11-13T05:16:40.535Z,16.04
2022-11-13T05:19:07.290Z,16.05
2022-11-13T05:21:35.137Z,16.08
2022-11-13T05:24:01.919Z,16.04
2022-11-13T05:26:29.119Z,16.10
2022-11-13T05:28:59.783Z,16.04
2022-11-13T05:31:26.581Z,16.05
2022-11-13T05:33:53.847Z,16.07
2022-11-13T05:36:20.984Z,16.06
2022-11-13T05:38:47.619Z,16.01
2022-11-13T05:41:19.503Z,16.01
2022-11-13T05:43:46.626Z,16.00
2022-11-13T05:46:16.849Z,16.01
2022-11-13T05:48:43.970Z,15.96
2022-11-13T05:51:17.356Z,16.01
2022-11-13T05:53:44.464Z,15.99
2022-11-13T05:56:17.300Z,16.04
2022-11-13T05:58:44.320Z,16.00
2022-11-13T06:01:20.412Z,16.01
2022-11-13T06:03:47.601Z,16.00
2022-11-13T06:06:17.480Z,15.96
2022-11-13T06:08:44.402Z,16.01
2022-11-13T06:11:13.483Z,16.00
2022-11-13T06:13:40.375Z,16.02
2022-11-13T06:16:14.853Z,16.02
2022-11-13T06:18:42.959Z,15.98
2022-11-13T06:21:12.904Z,15.96
2022-11-13T06:23:40.450Z,16.02
2022-11-13T06:26:18.486Z,15.96
2022-11-13T06:28:45.277Z,15.99
2022-11-13T06:31:30.016Z,15.93
2022-11-13T06:33:58.104Z,15.96
2022-11-13T06:36:27.315Z,16.02
2022-11-13T06:38:53.919Z,15.93
2022-11-13T06:41:22.494Z,15.89
2022-11-13T06:43:49.599Z,15.89
2022-11-13T06:46:24.285Z,15.94
2022-11-13T06:48:51.420Z,15.95
2022-11-13T06:51:20.435Z,15.94
2022-11-13T06:53:47.541Z,15.92
2022-11-13T06:56:14.422Z,15.94
2022-11-13T06:58:41.457Z,15.92
2022-11-13T07:01:09.790Z,15.90
2022-11-13T07:03:36.439Z,15.97
2022-11-13T07:06:04.994Z,15.92
2022-11-13T07:08:31.844Z,15.89
2022-11-13T07:10:59.043Z,15.94
2022-11-13T07:13:26.318Z,16.04
2022-11-13T07:15:52.888Z,16.21
2022-11-13T07:18:23.823Z,16.29
2022-11-13T07:20:50.767Z,16.46
2022-11-13T07:23:17.318Z,16.62
2022-11-13T07:25:43.855Z,16.92
2022-11-13T07:28:10.385Z,17.23
2022-11-13T07:30:37.056Z,17.52
2022-11-13T07:33:04.385Z,17.77
2022-11-13T07:35:31.230Z,18.00
2022-11-13T07:37:58.792Z,18.17
2022-11-13T07:40:25.864Z,18.30
2022-11-13T07:43:02.777Z,18.42
2022-11-13T07:45:29.544Z,18.47
2022-11-13T07:47:59.709Z,18.55
2022-11-13T07:50:31.771Z,18.50
2022-11-13T07:53:04.589Z,18.48
2022-11-13T07:55:33.150Z,18.44
2022-11-13T07:58:00.263Z,18.40
2022-11-13T08:00:28.059Z,18.37
2022-11-13T08:02:54.730Z,18.33
2022-11-13T08:05:21.672Z,18.32
2022-11-13T08:07:51.326Z,18.26
2022-11-13T08:10:19.490Z,18.11
2022-11-13T08:12:46.350Z,18.09
2022-11-13T08:15:13.875Z,18.01
2022-11-13T08:17:40.591Z,17.96
2022-11-13T08:20:09.016Z,17.84
2022-11-13T08:22:35.590Z,17.86
2022-11-13T08:25:02.161Z,18.04
2022-11-13T08:27:28.767Z,18.04
2022-11-13T08:29:55.328Z,18.11
2022-11-13T08:32:22.604Z,18.10
2022-11-13T08:34:49.395Z,18.08
2022-11-13T08:37:16.107Z,17.98
2022-11-13T08:39:42.662Z,18.09
2022-11-13T08:42:09.417Z,17.97
2022-11-13T08:44:36.000Z,18.15
2022-11-13T08:47:02.582Z,18.13
2022-11-13T08:49:29.181Z,18.05
2022-11-13T08:51:55.779Z,18.01
2022-11-13T08:54:22.315Z,18.02
2022-11-13T08:56:54.505Z,18.07
2022-11-13T08:59:23.772Z,17.98
2022-11-13T09:01:50.775Z,17.98
2022-11-13T09:04:17.543Z,17.94
2022-11-13T09:06:44.170Z,17.85
2022-11-13T09:09:10.839Z,17.88
2022-11-13T09:11:37.703Z,17.83
2022-11-13T09:14:04.260Z,17.74
2022-11-13T09:16:30.799Z,17.77
2022-11-13T09:18:57.356Z,17.86
2022-11-13T09:21:24.196Z,17.99
2022-11-13T09:23:50.779Z,18.00
2022-11-13T09:26:17.796Z,18.04
2022-11-13T09:28:44.400Z,18.07
2022-11-13T09:31:10.955Z,18.16
2022-11-13T09:33:37.799Z,18.23
2022-11-13T09:36:14.304Z,18.29
2022-11-13T09:38:41.239Z,18.42
2022-11-13T09:41:11.161Z,18.47
2022-11-13T09:43:58.211Z,18.58
2022-11-13T09:46:26.193Z,18.55
2022-11-13T09:48:56.078Z,18.65
2022-11-13T09:51:28.404Z,18.63
2022-11-13T09:53:54.966Z,18.63
2022-11-13T09:56:24.315Z,18.66
2022-11-13T09:59:02.358Z,18.70
2022-11-13T10:01:58.234Z,18.80
2022-11-13T10:04:50.229Z,18.80
2022-11-13T10:07:25.135Z,18.75
2022-11-13T10:09:58.903Z,18.74
2022-11-13T10:12:28.643Z,18.66
2022-11-13T10:14:55.980Z,18.63
2022-11-13T10:17:40.663Z,18.79
2022-11-13T10:20:35.550Z,18.83
2022-11-13T10:23:09.087Z,18.77
2022-11-13T10:25:37.612Z,18.85
2022-11-13T10:28:43.097Z,18.86
2022-11-13T10:30:59.043Z,18.87
2022-11-13T10:33:25.888Z,18.84
2022-11-13T10:35:52.633Z,18.84
2022-11-13T10:38:37.424Z,18.84
2022-11-13T10:41:18.119Z,18.85
2022-11-13T10:43:54.508Z,18.88
2022-11-13T10:46:31.716Z,18.88
2022-11-13T10:48:58.767Z,18.72
2022-11-13T10:51:30.692Z,18.88
2022-11-13T10:53:58.415Z,18.85
2022-11-13T10:56:35.080Z,18.88
2022-11-13T10:59:17.647Z,18.95
2022-11-13T11:01:45.903Z,18.97
2022-11-13T11:04:20.664Z,18.99
2022-11-13T11:09:38.476Z,19.09
2022-11-13T11:12:16.884Z,19.14
2022-11-13T11:14:58.782Z,19.15
2022-11-13T11:17:53.970Z,19.19
2022-11-13T11:20:25.795Z,19.07
2022-11-13T11:23:01.085Z,19.19
2022-11-13T11:25:40.738Z,19.11
2022-11-13T11:28:44.043Z,19.25
2022-11-13T11:31:35.928Z,19.21
2022-11-13T11:34:25.919Z,19.31
2022-11-13T11:37:12.089Z,19.46
2022-11-13T11:39:43.988Z,19.43
2022-11-13T11:42:28.867Z,19.35
2022-11-13T11:45:10.865Z,19.29
2022-11-13T11:47:38.379Z,19.28
2022-11-13T11:50:10.705Z,19.23
2022-11-13T11:53:00.755Z,19.04
2022-11-13T11:55:44.554Z,19.06
2022-11-13T11:58:26.499Z,19.18
2022-11-13T12:01:12.599Z,19.21
2022-11-13T12:03:48.006Z,19.23
2022-11-13T12:06:41.591Z,19.29
2022-11-13T12:09:16.900Z,19.26
2022-11-13T12:11:59.880Z,19.35
2022-11-13T12:14:39.887Z,19.49
2022-11-13T12:17:16.792Z,19.53
2022-11-13T12:19:58.705Z,19.57
2022-11-13T12:22:43.553Z,19.70
2022-11-13T12:25:28.079Z,19.76
2022-11-13T12:28:14.396Z,19.75
2022-11-13T12:31:19.295Z,19.88
2022-11-13T12:34:22.855Z,19.86
2022-11-13T12:36:49.584Z,19.75
2022-11-13T12:39:53.519Z,19.75
2022-11-13T12:42:34.359Z,19.61
2022-11-13T12:45:25.614Z,19.60
2022-11-13T12:47:52.247Z,19.56
2022-11-13T12:50:32.697Z,19.53
2022-11-13T12:53:04.760Z,19.36
2022-11-13T12:55:34.869Z,19.35
2022-11-13T12:58:17.616Z,19.36
2022-11-13T13:00:53.659Z,19.37
2022-11-13T13:03:38.282Z,19.44
2022-11-13T13:06:08.599Z,19.40
2022-11-13T13:08:56.431Z,19.39
2022-11-13T13:11:25.689Z,19.39
2022-11-13T13:14:04.192Z,19.42
2022-11-13T13:16:30.742Z,19.42
2022-11-13T13:19:29.362Z,19.46
2022-11-13T13:21:56.256Z,19.40
2022-11-13T13:24:35.734Z,19.42
2022-11-13T13:27:02.583Z,19.44
2022-11-13T13:29:30.596Z,19.45
2022-11-13T13:32:21.065Z,19.40
2022-11-13T13:35:08.853Z,19.37
2022-11-13T13:37:49.864Z,19.36
2022-11-13T13:40:28.559Z,19.33
2022-11-13T13:43:03.979Z,19.37
2022-11-13T13:45:52.006Z,19.38
2022-11-13T13:48:23.999Z,19.40
2022-11-13T13:50:50.907Z,19.39
2022-11-13T13:53:26.027Z,19.42
2022-11-13T13:55:54.990Z,19.40
2022-11-13T13:58:36.272Z,19.37
2022-11-13T14:01:18.453Z,19.36
2022-11-13T14:03:46.158Z,19.29
2022-11-13T14:06:20.657Z,19.35
2022-11-13T14:08:48.446Z,19.27
2022-11-13T14:11:29.819Z,19.32
2022-11-13T14:14:10.713Z,19.38
2022-11-13T14:16:48.024Z,19.45
2022-11-13T14:19:14.615Z,19.46
2022-11-13T14:21:41.384Z,19.47
2022-11-13T14:24:20.370Z,19.54
2022-11-13T14:26:48.216Z,19.59
2022-11-13T14:29:37.101Z,19.65
2022-11-13T14:32:13.887Z,19.66
2022-11-13T14:34:44.542Z,19.64
2022-11-13T14:37:32.030Z,19.66
2022-11-13T14:40:01.092Z,19.71
2022-11-13T14:42:39.072Z,19.70
2022-11-13T14:45:12.508Z,19.68
2022-11-13T14:47:38.901Z,19.80
2022-11-13T14:50:20.959Z,19.72
2022-11-13T14:53:03.858Z,19.83
2022-11-13T14:55:49.927Z,19.71
2022-11-13T14:58:30.400Z,19.76
2022-11-13T15:00:58.902Z,19.63
2022-11-13T15:03:26.807Z,19.64
2022-11-13T15:05:53.564Z,19.79
2022-11-13T15:08:20.529Z,19.68
2022-11-13T15:10:47.207Z,19.61
2022-11-13T15:13:17.892Z,19.67
2022-11-13T15:15:44.700Z,19.60
2022-11-13T15:18:17.440Z,19.56
2022-11-13T15:20:44.638Z,19.50
2022-11-13T15:23:15.607Z,19.55
2022-11-13T15:25:42.631Z,19.51
2022-11-13T15:28:09.335Z,19.47
2022-11-13T15:30:35.967Z,19.47
2022-11-13T15:33:02.735Z,19.50
2022-11-13T15:35:29.287Z,19.47
2022-11-13T15:37:55.854Z,19.45
2022-11-13T15:40:22.440Z,19.45
2022-11-13T15:42:48.996Z,19.45
2022-11-13T15:45:16.491Z,19.49
2022-11-13T15:47:43.311Z,19.48
2022-11-13T15:50:14.045Z,19.51
2022-11-13T15:52:43.156Z,19.52
2022-11-13T15:55:25.544Z,19.56
2022-11-13T15:57:52.497Z,19.58
2022-11-13T16:00:26.577Z,19.57
2022-11-13T16:02:55.867Z,19.58
2022-11-13T16:05:25.296Z,19.58
2022-11-13T16:07:52.923Z,19.57
2022-11-13T16:10:25.206Z,19.55
2022-11-13T16:12:52.628Z,19.54
2022-11-13T16:15:19.841Z,19.51
2022-11-13T16:17:51.914Z,19.57
2022-11-13T16:20:18.713Z,19.56
2022-11-13T16:22:45.512Z,19.57
2022-11-13T16:25:17.432Z,19.58
2022-11-13T16:27:44.199Z,19.56
2022-11-13T16:30:21.865Z,19.58
2022-11-13T16:32:48.719Z,19.54
2022-11-13T16:35:16.790Z,19.40
2022-11-13T16:37:43.362Z,19.50
2022-11-13T16:40:26.244Z,19.54
2022-11-13T16:42:53.266Z,19.47
2022-11-13T16:45:20.475Z,19.52
2022-11-13T16:47:47.231Z,19.53
2022-11-13T16:50:27.233Z,19.49
2022-11-13T16:52:53.852Z,19.48
2022-11-13T16:55:20.420Z,19.43
2022-11-13T16:57:47.181Z,19.44
2022-11-13T17:00:16.157Z,19.39
2022-11-13T17:02:43.519Z,19.43
2022-11-13T17:05:12.852Z,19.42
2022-11-13T17:07:39.424Z,19.38
2022-11-13T17:12:53.810Z,19.39
2022-11-13T17:15:20.972Z,19.30
2022-11-13T17:17:48.060Z,19.31
2022-11-13T17:20:17.370Z,19.31
2022-11-13T17:22:48.317Z,19.31
2022-11-13T17:25:16.779Z,19.28
2022-11-13T17:27:43.655Z,19.27
2022-11-13T17:30:12.312Z,19.22
2022-11-13T17:32:38.899Z,19.16
2022-11-13T17:35:06.168Z,19.22
2022-11-13T17:37:32.727Z,19.26
2022-11-13T17:39:59.270Z,19.14
2022-11-13T17:42:28.593Z,19.19
2022-11-13T17:44:55.420Z,19.24
2022-11-13T17:47:22.052Z,19.21
2022-11-13T17:49:48.616Z,19.18
2022-11-13T17:52:15.175Z,19.20
2022-11-13T17:54:41.737Z,19.12
2022-11-13T17:57:10.328Z,19.18
2022-11-13T17:59:37.019Z,19.15
2022-11-13T18:02:03.722Z,19.11
2022-11-13T18:04:30.294Z,19.11
2022-11-13T18:06:57.020Z,19.12
2022-11-13T18:09:23.615Z,19.09
2022-11-13T18:11:50.188Z,19.07
2022-11-13T18:14:18.858Z,19.13
2022-11-13T18:16:45.439Z,19.15
2022-11-13T18:19:11.967Z,19.15
2022-11-13T18:21:38.508Z,19.13
2022-11-13T18:24:07.964Z,19.09
2022-11-13T18:26:34.658Z,19.16
2022-11-13T18:29:01.987Z,19.13
2022-11-13T18:31:29.594Z,19.04
2022-11-13T18:33:58.615Z,18.94
2022-11-13T18:36:25.222Z,18.86
2022-11-13T18:38:51.756Z,18.82
2022-11-13T18:41:20.845Z,18.71
2022-11-13T18:43:48.597Z,18.70
2022-11-13T18:46:17.163Z,18.68
2022-11-13T18:48:44.765Z,18.66
2022-11-13T18:51:18.374Z,18.58
2022-11-13T18:53:45.755Z,18.57
2022-11-13T18:56:15.360Z,18.70
2022-11-13T18:58:43.699Z,18.56
2022-11-13T19:01:11.265Z,18.50
2022-11-13T19:03:37.858Z,18.48
2022-11-13T19:06:08.414Z,18.49
2022-11-13T19:08:40.565Z,18.51
2022-11-13T19:11:11.274Z,18.45
2022-11-13T19:13:38.923Z,18.40
2022-11-13T19:16:10.504Z,18.47
2022-11-13T19:18:38.142Z,18.41
2022-11-13T19:21:12.416Z,18.51
2022-11-13T19:23:39.243Z,18.38
2022-11-13T19:26:06.436Z,18.44
2022-11-13T19:28:33.087Z,18.41
2022-11-13T19:30:59.624Z,18.37
2022-11-13T19:33:27.518Z,18.35
2022-11-13T19:35:55.556Z,18.38
2022-11-13T19:38:22.103Z,18.35
2022-11-13T19:40:52.562Z,18.36
2022-11-13T19:43:19.148Z,18.35
2022-11-13T19:45:45.731Z,18.31
2022-11-13T19:48:17.509Z,18.31
2022-11-13T19:50:47.333Z,18.28
2022-11-13T19:53:15.643Z,18.23
2022-11-13T19:55:42.903Z,18.23
2022-11-13T19:58:09.470Z,18.20
2022-11-13T20:00:36.012Z,18.25
2022-11-13T20:03:06.555Z,18.22
2022-11-13T20:05:34.277Z,18.19
2022-11-13T20:08:00.879Z,18.18
2022-11-13T20:10:27.423Z,18.13
2022-11-13T20:12:53.965Z,18.16
2022-11-13T20:15:20.530Z,18.16
2022-11-13T20:17:47.074Z,18.10
2022-11-13T20:20:14.003Z,18.10
2022-11-13T20:22:40.550Z,18.18
2022-11-13T20:25:07.760Z,18.05
2022-11-13T20:27:37.254Z,18.14
2022-11-13T20:30:04.355Z,18.12
2022-11-13T20:32:30.911Z,18.08
2022-11-13T20:34:57.440Z,18.11
2022-11-13T20:37:23.996Z,18.09
2022-11-13T20:39:50.544Z,18.02
2022-11-13T20:42:17.143Z,18.03
2022-11-13T20:44:43.687Z,18.04
2022-11-13T20:47:10.236Z,18.04
2022-11-13T20:49:36.854Z,18.00
2022-11-13T20:52:04.670Z,17.95
2022-11-13T20:54:31.262Z,17.98
2022-11-13T20:56:57.802Z,18.04
2022-11-13T20:59:24.400Z,17.95
2022-11-13T21:01:51.022Z,17.97
2022-11-13T21:04:17.579Z,17.94
2022-11-13T21:06:44.521Z,17.94
2022-11-13T21:09:11.327Z,17.93
2022-11-13T21:11:37.906Z,17.92
2022-11-13T21:14:04.610Z,17.89
2022-11-13T21:16:31.264Z,17.98
2022-11-13T21:18:59.229Z,17.94
2022-11-13T21:21:28.440Z,17.94
2022-11-13T21:23:59.063Z,17.92
2022-11-13T21:26:25.691Z,17.90
2022-11-13T21:28:56.685Z,17.90
2022-11-13T21:31:23.503Z,17.88
2022-11-13T21:33:50.132Z,17.90
2022-11-13T21:36:22.022Z,17.85
2022-11-13T21:38:53.004Z,17.90
2022-11-13T21:41:23.379Z,17.87
2022-11-13T21:43:57.867Z,17.79
2022-11-13T21:46:32.879Z,17.81
2022-11-13T21:49:02.576Z,17.74
2022-11-13T21:51:29.893Z,17.73
2022-11-13T21:53:56.894Z,17.74
2022-11-13T21:56:24.506Z,17.79
2022-11-13T21:58:51.050Z,17.82
2022-11-13T22:01:18.068Z,17.72
2022-11-13T22:03:44.769Z,17.77
2022-11-13T22:06:14.921Z,17.69
2022-11-13T22:08:42.087Z,17.74
2022-11-13T22:11:08.976Z,17.69
2022-11-13T22:13:35.894Z,17.76
2022-11-13T22:16:06.366Z,17.69
2022-11-13T22:18:33.898Z,17.70
2022-11-13T22:21:04.640Z,17.68
2022-11-13T22:23:31.753Z,17.70
2022-11-13T22:26:05.435Z,17.70
2022-11-13T22:28:33.770Z,17.66
2022-11-13T22:31:00.953Z,17.69
2022-11-13T22:33:28.919Z,17.69
2022-11-13T22:36:02.079Z,17.62
2022-11-13T22:38:28.986Z,17.60
2022-11-13T22:41:02.061Z,17.63
2022-11-13T22:43:32.674Z,17.58
2022-11-13T22:46:06.171Z,17.63
2022-11-13T22:48:32.830Z,17.72
2022-11-13T22:51:05.435Z,17.61
2022-11-13T22:53:32.027Z,17.67
2022-11-13T22:56:15.824Z,17.69
2022-11-13T22:58:42.239Z,17.64
2022-11-13T23:01:13.724Z,17.61
2022-11-13T23:03:42.268Z,17.58
2022-11-13T23:06:09.891Z,17.58
2022-11-13T23:08:40.644Z,17.52
2022-11-13T23:11:13.235Z,17.60
2022-11-13T23:13:44.396Z,17.53
2022-11-13T23:16:11.642Z,17.58
2022-11-13T23:18:38.571Z,17.55
2022-11-13T23:21:06.388Z,17.59
2022-11-13T23:23:32.958Z,17.49
2022-11-13T23:26:00.288Z,17.59
2022-11-13T23:28:28.319Z,17.59
2022-11-13T23:30:55.449Z,17.55
2022-11-13T23:33:22.172Z,17.56
2022-11-13T23:35:48.960Z,17.51
2022-11-13T23:38:15.509Z,17.55
2022-11-13T23:40:42.053Z,17.54
2022-11-13T23:43:08.710Z,17.55
2022-11-13T23:45:35.267Z,17.51
2022-11-13T23:48:01.923Z,17.52
2022-11-13T23:50:28.861Z,17.51
2022-11-13T23:52:55.392Z,17.46
2022-11-13T23:55:22.580Z,17.47
2022-11-13T23:57:56.547Z,17.44
